sensor_id;sensor_type;location;lat;lon;timestamp;temperature;humidity
18091;DHT22;9172;49.948;9.208;2023-01-08T00:00:33;9.10;99.90
18091;DHT22;9172;49.948;9.208;2023-01-08T00:03:02;9.00;99.90
18091;DHT22;9172;49.948;9.208;2023-01-08T00:05:31;9.00;99.90
18091;DHT22;9172;49.948;9.208;2023-01-08T00:08:00;9.00;99.90
18091;DHT22;9172;49.948;9.208;2023-01-08T00:10:29;9.00;99.90
18091;DHT22;9172;49.948;9.208;2023-01-08T00:12:58;9.00;99.90
18091;DHT22;9172;49.948;9.208;2023-01-08T00:15:27;9.00;99.90
18091;DHT22;9172;49.948;9.208;2023-01-08T00:17:57;9.00;99.90
18091;DHT22;9172;49.948;9.208;2023-01-08T00:20:26;9.00;99.90
18091;DHT22;9172;49.948;9.208;2023-01-08T00:22:55;9.00;99.90
18091;DHT22;9172;49.948;9.208;2023-01-08T00:25:25;9.00;99.90
18091;DHT22;9172;49.948;9.208;2023-01-08T00:27:54;9.00;99.90
18091;DHT22;9172;49.948;9.208;2023-01-08T00:30:23;9.00;99.90
18091;DHT22;9172;49.948;9.208;2023-01-08T00:32:53;9.00;99.90
18091;DHT22;9172;49.948;9.208;2023-01-08T00:35:23;9.00;99.90
18091;DHT22;9172;49.948;9.208;2023-01-08T00:37:52;9.10;99.90
18091;DHT22;9172;49.948;9.208;2023-01-08T00:40:21;9.10;99.90
18091;DHT22;9172;49.948;9.208;2023-01-08T00:42:51;9.00;99.90
18091;DHT22;9172;49.948;9.208;2023-01-08T00:45:20;9.10;99.90
18091;DHT22;9172;49.948;9.208;2023-01-08T00:47:48;9.10;99.90
18091;DHT22;9172;49.948;9.208;2023-01-08T00:50:17;9.10;99.90
18091;DHT22;9172;49.948;9.208;2023-01-08T00:52:47;9.10;99.90
18091;DHT22;9172;49.948;9.208;2023-01-08T00:55:15;9.10;99.90
18091;DHT22;9172;49.948;9.208;2023-01-08T00:57:45;9.10;99.90
18091;DHT22;9172;49.948;9.208;2023-01-08T01:00:15;9.10;99.90
18091;DHT22;9172;49.948;9.208;2023-01-08T01:02:45;9.10;99.90
18091;DHT22;9172;49.948;9.208;2023-01-08T01:05:14;9.10;99.90
18091;DHT22;9172;49.948;9.208;2023-01-08T01:07:44;9.10;99.90
18091;DHT22;9172;49.948;9.208;2023-01-08T01:10:13;9.10;99.90
18091;DHT22;9172;49.948;9.208;2023-01-08T01:12:42;9.10;99.90
18091;DHT22;9172;49.948;9.208;2023-01-08T01:15:14;9.10;99.90
18091;DHT22;9172;49.948;9.208;2023-01-08T01:17:45;9.10;99.90
18091;DHT22;9172;49.948;9.208;2023-01-08T01:20:15;9.10;99.90
18091;DHT22;9172;49.948;9.208;2023-01-08T01:22:44;9.20;99.90
18091;DHT22;9172;49.948;9.208;2023-01-08T01:27:50;9.20;99.90
18091;DHT22;9172;49.948;9.208;2023-01-08T01:30:20;9.30;99.90
18091;DHT22;9172;49.948;9.208;2023-01-08T01:32:48;9.30;99.90
18091;DHT22;9172;49.948;9.208;2023-01-08T01:35:20;9.40;99.90
18091;DHT22;9172;49.948;9.208;2023-01-08T01:37:51;9.40;99.90
18091;DHT22;9172;49.948;9.208;2023-01-08T01:40:19;9.40;99.90
18091;DHT22;9172;49.948;9.208;2023-01-08T01:42:48;9.40;99.90
18091;DHT22;9172;49.948;9.208;2023-01-08T01:45:19;9.40;99.90
18091;DHT22;9172;49.948;9.208;2023-01-08T01:47:51;9.40;99.90
18091;DHT22;9172;49.948;9.208;2023-01-08T01:50:25;9.50;99.90
18091;DHT22;9172;49.948;9.208;2023-01-08T01:52:58;9.40;99.90
18091;DHT22;9172;49.948;9.208;2023-01-08T01:58:07;9.50;99.90
18091;DHT22;9172;49.948;9.208;2023-01-08T02:00:38;9.40;99.90
18091;DHT22;9172;49.948;9.208;2023-01-08T02:03:08;9.40;99.90
18091;DHT22;9172;49.948;9.208;2023-01-08T02:05:45;9.40;99.90
18091;DHT22;9172;49.948;9.208;2023-01-08T02:08:12;9.40;99.90
18091;DHT22;9172;49.948;9.208;2023-01-08T02:10:46;9.40;99.90
18091;DHT22;9172;49.948;9.208;2023-01-08T02:13:19;9.30;99.90
18091;DHT22;9172;49.948;9.208;2023-01-08T02:15:53;9.30;99.90
18091;DHT22;9172;49.948;9.208;2023-01-08T02:18:25;9.30;99.90
18091;DHT22;9172;49.948;9.208;2023-01-08T02:20:57;9.40;99.90
18091;DHT22;9172;49.948;9.208;2023-01-08T02:23:32;9.40;99.90
18091;DHT22;9172;49.948;9.208;2023-01-08T02:26:16;9.40;99.90
18091;DHT22;9172;49.948;9.208;2023-01-08T02:28:50;9.40;99.90
18091;DHT22;9172;49.948;9.208;2023-01-08T02:31:22;9.40;99.90
18091;DHT22;9172;49.948;9.208;2023-01-08T02:33:52;9.40;99.90
18091;DHT22;9172;49.948;9.208;2023-01-08T02:36:34;9.40;99.90
18091;DHT22;9172;49.948;9.208;2023-01-08T02:39:22;9.40;99.90
18091;DHT22;9172;49.948;9.208;2023-01-08T02:41:57;9.40;99.90
18091;DHT22;9172;49.948;9.208;2023-01-08T02:44:30;9.50;99.90
18091;DHT22;9172;49.948;9.208;2023-01-08T02:47:02;9.50;99.90
18091;DHT22;9172;49.948;9.208;2023-01-08T02:49:37;9.50;99.90
18091;DHT22;9172;49.948;9.208;2023-01-08T02:52:07;9.50;99.90
18091;DHT22;9172;49.948;9.208;2023-01-08T02:54:39;9.50;99.90
18091;DHT22;9172;49.948;9.208;2023-01-08T02:57:14;9.50;99.90
18091;DHT22;9172;49.948;9.208;2023-01-08T02:59:46;9.40;99.90
18091;DHT22;9172;49.948;9.208;2023-01-08T03:02:16;9.40;99.90
18091;DHT22;9172;49.948;9.208;2023-01-08T03:04:50;9.40;99.90
18091;DHT22;9172;49.948;9.208;2023-01-08T03:07:20;9.40;99.90
18091;DHT22;9172;49.948;9.208;2023-01-08T03:09:49;9.40;99.90
18091;DHT22;9172;49.948;9.208;2023-01-08T03:12:22;9.40;99.90
18091;DHT22;9172;49.948;9.208;2023-01-08T03:14:53;9.40;99.90
18091;DHT22;9172;49.948;9.208;2023-01-08T03:17:25;9.40;99.90
18091;DHT22;9172;49.948;9.208;2023-01-08T03:19:56;9.40;99.90
18091;DHT22;9172;49.948;9.208;2023-01-08T03:22:27;9.40;99.90
18091;DHT22;9172;49.948;9.208;2023-01-08T03:24:58;9.30;99.90
18091;DHT22;9172;49.948;9.208;2023-01-08T03:27:29;9.40;99.90
18091;DHT22;9172;49.948;9.208;2023-01-08T03:30:00;9.40;99.90
18091;DHT22;9172;49.948;9.208;2023-01-08T03:32:31;9.30;99.90
18091;DHT22;9172;49.948;9.208;2023-01-08T03:35:02;9.40;99.90
18091;DHT22;9172;49.948;9.208;2023-01-08T03:37:34;9.30;99.90
18091;DHT22;9172;49.948;9.208;2023-01-08T03:40:08;9.40;99.90
18091;DHT22;9172;49.948;9.208;2023-01-08T03:42:37;9.40;99.90
18091;DHT22;9172;49.948;9.208;2023-01-08T03:45:08;9.40;99.90
18091;DHT22;9172;49.948;9.208;2023-01-08T03:47:38;9.40;99.90
18091;DHT22;9172;49.948;9.208;2023-01-08T03:50:10;9.40;99.90
18091;DHT22;9172;49.948;9.208;2023-01-08T03:52:39;9.40;99.90
18091;DHT22;9172;49.948;9.208;2023-01-08T03:55:09;9.40;99.90
18091;DHT22;9172;49.948;9.208;2023-01-08T03:57:38;9.40;99.90
18091;DHT22;9172;49.948;9.208;2023-01-08T04:00:09;9.40;99.90
18091;DHT22;9172;49.948;9.208;2023-01-08T04:02:37;9.40;99.90
18091;DHT22;9172;49.948;9.208;2023-01-08T04:05:09;9.40;99.90
18091;DHT22;9172;49.948;9.208;2023-01-08T04:07:38;9.40;99.90
18091;DHT22;9172;49.948;9.208;2023-01-08T04:10:08;9.40;99.90
18091;DHT22;9172;49.948;9.208;2023-01-08T04:12:41;9.30;99.90
18091;DHT22;9172;49.948;9.208;2023-01-08T04:15:11;9.30;99.90
18091;DHT22;9172;49.948;9.208;2023-01-08T04:17:40;9.30;99.90
18091;DHT22;9172;49.948;9.208;2023-01-08T04:20:11;9.30;99.90
18091;DHT22;9172;49.948;9.208;2023-01-08T04:22:41;9.30;99.90
18091;DHT22;9172;49.948;9.208;2023-01-08T04:25:11;9.20;99.90
18091;DHT22;9172;49.948;9.208;2023-01-08T04:27:40;9.20;99.90
18091;DHT22;9172;49.948;9.208;2023-01-08T04:30:11;9.20;99.90
18091;DHT22;9172;49.948;9.208;2023-01-08T04:32:40;9.20;99.90
18091;DHT22;9172;49.948;9.208;2023-01-08T04:35:13;9.20;99.90
18091;DHT22;9172;49.948;9.208;2023-01-08T04:37:46;9.20;99.90
18091;DHT22;9172;49.948;9.208;2023-01-08T04:40:15;9.20;99.90
18091;DHT22;9172;49.948;9.208;2023-01-08T04:42:45;9.10;99.90
18091;DHT22;9172;49.948;9.208;2023-01-08T04:45:13;9.10;99.90
18091;DHT22;9172;49.948;9.208;2023-01-08T04:47:42;9.20;99.90
18091;DHT22;9172;49.948;9.208;2023-01-08T04:50:11;9.10;99.90
18091;DHT22;9172;49.948;9.208;2023-01-08T04:52:40;9.10;99.90
18091;DHT22;9172;49.948;9.208;2023-01-08T04:55:10;9.10;99.90
18091;DHT22;9172;49.948;9.208;2023-01-08T04:57:39;9.10;99.90
18091;DHT22;9172;49.948;9.208;2023-01-08T05:00:13;9.10;99.90
18091;DHT22;9172;49.948;9.208;2023-01-08T05:02:44;9.10;99.90
18091;DHT22;9172;49.948;9.208;2023-01-08T05:05:13;9.10;99.90
18091;DHT22;9172;49.948;9.208;2023-01-08T05:07:42;9.10;99.90
18091;DHT22;9172;49.948;9.208;2023-01-08T05:10:12;9.10;99.90
18091;DHT22;9172;49.948;9.208;2023-01-08T05:12:41;9.10;99.90
18091;DHT22;9172;49.948;9.208;2023-01-08T05:15:10;9.10;99.90
18091;DHT22;9172;49.948;9.208;2023-01-08T05:17:40;9.10;99.90
18091;DHT22;9172;49.948;9.208;2023-01-08T05:20:10;9.10;99.90
18091;DHT22;9172;49.948;9.208;2023-01-08T05:22:39;9.00;99.90
18091;DHT22;9172;49.948;9.208;2023-01-08T05:25:09;9.00;99.90
18091;DHT22;9172;49.948;9.208;2023-01-08T05:27:38;9.00;99.90
18091;DHT22;9172;49.948;9.208;2023-01-08T05:30:09;9.00;99.90
18091;DHT22;9172;49.948;9.208;2023-01-08T05:32:38;9.00;99.90
18091;DHT22;9172;49.948;9.208;2023-01-08T05:35:08;9.00;99.90
18091;DHT22;9172;49.948;9.208;2023-01-08T05:40:13;9.00;99.90
18091;DHT22;9172;49.948;9.208;2023-01-08T05:42:43;9.10;99.90
18091;DHT22;9172;49.948;9.208;2023-01-08T05:45:11;9.10;99.90
18091;DHT22;9172;49.948;9.208;2023-01-08T05:47:43;9.00;99.90
18091;DHT22;9172;49.948;9.208;2023-01-08T05:50:12;9.00;99.90
18091;DHT22;9172;49.948;9.208;2023-01-08T05:52:41;9.00;99.90
18091;DHT22;9172;49.948;9.208;2023-01-08T05:55:14;9.00;99.90
18091;DHT22;9172;49.948;9.208;2023-01-08T05:57:42;9.00;99.90
18091;DHT22;9172;49.948;9.208;2023-01-08T06:00:13;9.00;99.90
18091;DHT22;9172;49.948;9.208;2023-01-08T06:02:46;8.90;99.90
18091;DHT22;9172;49.948;9.208;2023-01-08T06:05:16;8.90;99.90
18091;DHT22;9172;49.948;9.208;2023-01-08T06:07:44;8.90;99.90
18091;DHT22;9172;49.948;9.208;2023-01-08T06:10:15;8.90;99.90
18091;DHT22;9172;49.948;9.208;2023-01-08T06:12:44;8.80;99.90
18091;DHT22;9172;49.948;9.208;2023-01-08T06:15:14;8.80;99.90
18091;DHT22;9172;49.948;9.208;2023-01-08T06:17:43;8.80;99.90
18091;DHT22;9172;49.948;9.208;2023-01-08T06:20:12;8.80;99.90
18091;DHT22;9172;49.948;9.208;2023-01-08T06:22:41;8.70;99.90
18091;DHT22;9172;49.948;9.208;2023-01-08T06:25:10;8.70;99.90
18091;DHT22;9172;49.948;9.208;2023-01-08T06:27:42;8.70;99.90
18091;DHT22;9172;49.948;9.208;2023-01-08T06:32:49;8.70;99.90
18091;DHT22;9172;49.948;9.208;2023-01-08T06:35:19;8.70;99.90
18091;DHT22;9172;49.948;9.208;2023-01-08T06:37:50;8.70;99.90
18091;DHT22;9172;49.948;9.208;2023-01-08T06:40:20;8.70;99.90
18091;DHT22;9172;49.948;9.208;2023-01-08T06:42:50;8.60;99.90
18091;DHT22;9172;49.948;9.208;2023-01-08T06:45:18;8.60;99.90
18091;DHT22;9172;49.948;9.208;2023-01-08T06:47:48;8.60;99.90
18091;DHT22;9172;49.948;9.208;2023-01-08T06:50:18;8.60;99.90
18091;DHT22;9172;49.948;9.208;2023-01-08T06:52:52;8.60;99.90
18091;DHT22;9172;49.948;9.208;2023-01-08T06:55:21;8.60;99.90
18091;DHT22;9172;49.948;9.208;2023-01-08T06:57:53;8.60;99.90
18091;DHT22;9172;49.948;9.208;2023-01-08T07:00:23;8.60;99.90
18091;DHT22;9172;49.948;9.208;2023-01-08T07:02:53;8.60;99.90
18091;DHT22;9172;49.948;9.208;2023-01-08T07:05:22;8.60;99.90
18091;DHT22;9172;49.948;9.208;2023-01-08T07:07:52;8.50;99.90
18091;DHT22;9172;49.948;9.208;2023-01-08T07:10:22;8.50;99.90
18091;DHT22;9172;49.948;9.208;2023-01-08T07:12:52;8.50;99.90
18091;DHT22;9172;49.948;9.208;2023-01-08T07:15:21;8.50;99.90
18091;DHT22;9172;49.948;9.208;2023-01-08T07:17:51;8.50;99.90
18091;DHT22;9172;49.948;9.208;2023-01-08T07:20:23;8.50;99.90
18091;DHT22;9172;49.948;9.208;2023-01-08T07:22:52;8.50;99.90
18091;DHT22;9172;49.948;9.208;2023-01-08T07:25:21;8.50;99.90
18091;DHT22;9172;49.948;9.208;2023-01-08T07:27:49;8.50;99.90
18091;DHT22;9172;49.948;9.208;2023-01-08T07:30:18;8.50;99.90
18091;DHT22;9172;49.948;9.208;2023-01-08T07:32:47;8.50;99.90
18091;DHT22;9172;49.948;9.208;2023-01-08T07:35:16;8.50;99.90
18091;DHT22;9172;49.948;9.208;2023-01-08T07:37:46;8.50;99.90
18091;DHT22;9172;49.948;9.208;2023-01-08T07:42:58;8.50;99.90
18091;DHT22;9172;49.948;9.208;2023-01-08T07:48:05;8.50;99.90
18091;DHT22;9172;49.948;9.208;2023-01-08T07:50:36;8.50;99.90
18091;DHT22;9172;49.948;9.208;2023-01-08T07:53:08;8.50;99.90
18091;DHT22;9172;49.948;9.208;2023-01-08T07:58:17;8.50;99.90
18091;DHT22;9172;49.948;9.208;2023-01-08T08:00:47;8.50;99.90
18091;DHT22;9172;49.948;9.208;2023-01-08T08:03:16;8.50;99.90
18091;DHT22;9172;49.948;9.208;2023-01-08T08:05:46;8.40;99.90
18091;DHT22;9172;49.948;9.208;2023-01-08T08:08:15;8.50;99.90
18091;DHT22;9172;49.948;9.208;2023-01-08T08:10:45;8.50;99.90
18091;DHT22;9172;49.948;9.208;2023-01-08T08:13:14;8.40;99.90
18091;DHT22;9172;49.948;9.208;2023-01-08T08:15:43;8.40;99.90
18091;DHT22;9172;49.948;9.208;2023-01-08T08:18:13;8.40;99.90
18091;DHT22;9172;49.948;9.208;2023-01-08T08:20:44;8.40;99.90
18091;DHT22;9172;49.948;9.208;2023-01-08T08:23:16;8.40;99.90
18091;DHT22;9172;49.948;9.208;2023-01-08T08:25:46;8.50;99.90
18091;DHT22;9172;49.948;9.208;2023-01-08T08:28:14;8.40;99.90
18091;DHT22;9172;49.948;9.208;2023-01-08T08:30:43;8.40;99.90
18091;DHT22;9172;49.948;9.208;2023-01-08T08:33:12;8.40;99.90
18091;DHT22;9172;49.948;9.208;2023-01-08T08:35:47;8.50;99.90
18091;DHT22;9172;49.948;9.208;2023-01-08T08:38:16;8.50;99.90
18091;DHT22;9172;49.948;9.208;2023-01-08T08:40:46;8.40;99.90
18091;DHT22;9172;49.948;9.208;2023-01-08T08:43:14;8.40;99.90
18091;DHT22;9172;49.948;9.208;2023-01-08T08:45:43;8.40;99.90
18091;DHT22;9172;49.948;9.208;2023-01-08T08:48:12;8.40;99.90
18091;DHT22;9172;49.948;9.208;2023-01-08T08:50:44;8.40;99.90
18091;DHT22;9172;49.948;9.208;2023-01-08T08:53:12;8.40;99.90
18091;DHT22;9172;49.948;9.208;2023-01-08T08:55:42;8.40;99.90
18091;DHT22;9172;49.948;9.208;2023-01-08T08:58:12;8.40;99.90
18091;DHT22;9172;49.948;9.208;2023-01-08T09:00:43;8.40;99.90
18091;DHT22;9172;49.948;9.208;2023-01-08T09:03:13;8.40;99.90
18091;DHT22;9172;49.948;9.208;2023-01-08T09:05:42;8.40;99.90
18091;DHT22;9172;49.948;9.208;2023-01-08T09:08:12;8.40;99.90
18091;DHT22;9172;49.948;9.208;2023-01-08T09:10:42;8.50;99.90
18091;DHT22;9172;49.948;9.208;2023-01-08T09:13:11;8.40;99.90
18091;DHT22;9172;49.948;9.208;2023-01-08T09:18:28;8.40;99.90
18091;DHT22;9172;49.948;9.208;2023-01-08T09:20:57;8.40;99.90
18091;DHT22;9172;49.948;9.208;2023-01-08T09:23:25;8.40;99.90
18091;DHT22;9172;49.948;9.208;2023-01-08T09:25:59;8.50;99.90
18091;DHT22;9172;49.948;9.208;2023-01-08T09:28:28;8.50;99.90
18091;DHT22;9172;49.948;9.208;2023-01-08T09:31:00;8.50;99.90
18091;DHT22;9172;49.948;9.208;2023-01-08T09:33:29;8.50;99.90
18091;DHT22;9172;49.948;9.208;2023-01-08T09:35:58;8.50;99.90
18091;DHT22;9172;49.948;9.208;2023-01-08T09:38:27;8.50;99.90
18091;DHT22;9172;49.948;9.208;2023-01-08T09:40:58;8.50;99.90
18091;DHT22;9172;49.948;9.208;2023-01-08T09:43:30;8.50;99.90
18091;DHT22;9172;49.948;9.208;2023-01-08T09:46:02;8.50;99.90
18091;DHT22;9172;49.948;9.208;2023-01-08T09:48:35;8.50;99.90
18091;DHT22;9172;49.948;9.208;2023-01-08T09:51:05;8.50;99.90
18091;DHT22;9172;49.948;9.208;2023-01-08T09:53:34;8.60;99.90
18091;DHT22;9172;49.948;9.208;2023-01-08T09:56:09;8.50;99.90
18091;DHT22;9172;49.948;9.208;2023-01-08T09:58:40;8.50;99.90
18091;DHT22;9172;49.948;9.208;2023-01-08T10:01:13;8.60;99.90
18091;DHT22;9172;49.948;9.208;2023-01-08T10:03:45;8.60;99.90
18091;DHT22;9172;49.948;9.208;2023-01-08T10:06:16;8.60;99.90
18091;DHT22;9172;49.948;9.208;2023-01-08T10:08:44;8.60;99.90
18091;DHT22;9172;49.948;9.208;2023-01-08T10:11:14;8.60;99.90
18091;DHT22;9172;49.948;9.208;2023-01-08T10:13:47;8.60;99.90
18091;DHT22;9172;49.948;9.208;2023-01-08T10:16:20;8.60;99.90
18091;DHT22;9172;49.948;9.208;2023-01-08T10:18:50;8.60;99.90
18091;DHT22;9172;49.948;9.208;2023-01-08T10:21:20;8.70;99.90
18091;DHT22;9172;49.948;9.208;2023-01-08T10:23:51;8.70;99.90
18091;DHT22;9172;49.948;9.208;2023-01-08T10:26:28;8.70;99.90
18091;DHT22;9172;49.948;9.208;2023-01-08T10:29:08;8.70;99.90
18091;DHT22;9172;49.948;9.208;2023-01-08T10:31:47;8.70;99.90
18091;DHT22;9172;49.948;9.208;2023-01-08T10:34:27;8.70;99.90
18091;DHT22;9172;49.948;9.208;2023-01-08T10:36:57;8.70;99.90
18091;DHT22;9172;49.948;9.208;2023-01-08T10:39:27;8.70;99.90
18091;DHT22;9172;49.948;9.208;2023-01-08T10:42:02;8.70;99.90
18091;DHT22;9172;49.948;9.208;2023-01-08T10:44:33;8.70;99.90
18091;DHT22;9172;49.948;9.208;2023-01-08T10:47:03;8.70;99.90
18091;DHT22;9172;49.948;9.208;2023-01-08T10:49:36;8.70;99.90
18091;DHT22;9172;49.948;9.208;2023-01-08T10:52:18;8.70;99.90
18091;DHT22;9172;49.948;9.208;2023-01-08T10:54:48;8.70;99.90
18091;DHT22;9172;49.948;9.208;2023-01-08T10:57:26;8.70;99.90
18091;DHT22;9172;49.948;9.208;2023-01-08T10:59:55;8.70;99.90
18091;DHT22;9172;49.948;9.208;2023-01-08T11:02:32;8.70;99.90
18091;DHT22;9172;49.948;9.208;2023-01-08T11:05:03;8.70;99.90
18091;DHT22;9172;49.948;9.208;2023-01-08T11:07:34;8.70;99.90
18091;DHT22;9172;49.948;9.208;2023-01-08T11:10:04;8.70;99.90
18091;DHT22;9172;49.948;9.208;2023-01-08T11:12:37;8.80;99.90
18091;DHT22;9172;49.948;9.208;2023-01-08T11:15:27;8.80;99.90
18091;DHT22;9172;49.948;9.208;2023-01-08T11:18:05;8.80;99.90
18091;DHT22;9172;49.948;9.208;2023-01-08T11:20:34;8.80;99.90
18091;DHT22;9172;49.948;9.208;2023-01-08T11:23:05;8.80;99.90
18091;DHT22;9172;49.948;9.208;2023-01-08T11:25:34;8.80;99.90
18091;DHT22;9172;49.948;9.208;2023-01-08T11:30:45;8.80;99.90
18091;DHT22;9172;49.948;9.208;2023-01-08T11:33:17;8.90;99.90
18091;DHT22;9172;49.948;9.208;2023-01-08T11:35:49;8.90;99.90
18091;DHT22;9172;49.948;9.208;2023-01-08T11:38:18;9.00;99.90
18091;DHT22;9172;49.948;9.208;2023-01-08T11:40:49;9.00;99.90
18091;DHT22;9172;49.948;9.208;2023-01-08T11:43:23;9.10;99.90
18091;DHT22;9172;49.948;9.208;2023-01-08T11:45:59;9.20;99.90
18091;DHT22;9172;49.948;9.208;2023-01-08T11:48:40;9.20;99.90
18091;DHT22;9172;49.948;9.208;2023-01-08T11:51:27;9.30;99.90
18091;DHT22;9172;49.948;9.208;2023-01-08T11:53:59;9.30;99.90
18091;DHT22;9172;49.948;9.208;2023-01-08T11:56:33;9.30;99.90
18091;DHT22;9172;49.948;9.208;2023-01-08T11:59:07;9.30;99.90
18091;DHT22;9172;49.948;9.208;2023-01-08T12:01:42;9.30;99.90
18091;DHT22;9172;49.948;9.208;2023-01-08T12:04:35;9.30;99.90
18091;DHT22;9172;49.948;9.208;2023-01-08T12:07:08;9.30;99.90
18091;DHT22;9172;49.948;9.208;2023-01-08T12:09:40;9.40;99.90
18091;DHT22;9172;49.948;9.208;2023-01-08T12:12:16;9.40;99.90
18091;DHT22;9172;49.948;9.208;2023-01-08T12:14:50;9.40;99.90
18091;DHT22;9172;49.948;9.208;2023-01-08T12:17:35;9.40;99.90
18091;DHT22;9172;49.948;9.208;2023-01-08T12:20:13;9.30;99.90
18091;DHT22;9172;49.948;9.208;2023-01-08T12:22:45;9.30;99.90
18091;DHT22;9172;49.948;9.208;2023-01-08T12:25:23;9.40;99.90
18091;DHT22;9172;49.948;9.208;2023-01-08T12:27:58;9.30;99.90
18091;DHT22;9172;49.948;9.208;2023-01-08T12:30:35;9.40;99.90
18091;DHT22;9172;49.948;9.208;2023-01-08T12:33:08;9.40;99.90
18091;DHT22;9172;49.948;9.208;2023-01-08T12:35:39;9.40;99.90
18091;DHT22;9172;49.948;9.208;2023-01-08T12:38:12;9.40;99.90
18091;DHT22;9172;49.948;9.208;2023-01-08T12:40:42;9.50;99.90
18091;DHT22;9172;49.948;9.208;2023-01-08T12:43:16;9.50;99.90
18091;DHT22;9172;49.948;9.208;2023-01-08T12:45:47;9.50;99.90
18091;DHT22;9172;49.948;9.208;2023-01-08T12:48:17;9.60;99.90
18091;DHT22;9172;49.948;9.208;2023-01-08T12:50:58;9.60;99.90
18091;DHT22;9172;49.948;9.208;2023-01-08T12:53:33;9.60;99.90
18091;DHT22;9172;49.948;9.208;2023-01-08T12:59:05;9.60;99.90
18091;DHT22;9172;49.948;9.208;2023-01-08T13:01:40;9.60;99.90
18091;DHT22;9172;49.948;9.208;2023-01-08T13:04:09;9.60;99.90
18091;DHT22;9172;49.948;9.208;2023-01-08T13:06:48;9.60;99.90
18091;DHT22;9172;49.948;9.208;2023-01-08T13:09:21;9.60;99.90
18091;DHT22;9172;49.948;9.208;2023-01-08T13:11:53;9.60;99.90
18091;DHT22;9172;49.948;9.208;2023-01-08T13:14:24;9.60;99.90
18091;DHT22;9172;49.948;9.208;2023-01-08T13:17:02;9.60;99.90
18091;DHT22;9172;49.948;9.208;2023-01-08T13:19:35;9.60;99.90
18091;DHT22;9172;49.948;9.208;2023-01-08T13:22:22;9.60;99.90
18091;DHT22;9172;49.948;9.208;2023-01-08T13:24:51;9.60;99.90
18091;DHT22;9172;49.948;9.208;2023-01-08T13:27:29;9.60;99.90
18091;DHT22;9172;49.948;9.208;2023-01-08T13:30:00;9.60;99.90
18091;DHT22;9172;49.948;9.208;2023-01-08T13:32:42;9.60;99.90
18091;DHT22;9172;49.948;9.208;2023-01-08T13:35:28;9.60;99.90
18091;DHT22;9172;49.948;9.208;2023-01-08T13:38:15;9.70;99.90
18091;DHT22;9172;49.948;9.208;2023-01-08T13:40:56;9.70;99.90
18091;DHT22;9172;49.948;9.208;2023-01-08T13:43:28;9.60;99.90
18091;DHT22;9172;49.948;9.208;2023-01-08T13:46:17;9.60;99.90
18091;DHT22;9172;49.948;9.208;2023-01-08T13:48:53;9.60;99.90
18091;DHT22;9172;49.948;9.208;2023-01-08T13:51:30;9.60;99.90
18091;DHT22;9172;49.948;9.208;2023-01-08T13:54:04;9.60;99.90
18091;DHT22;9172;49.948;9.208;2023-01-08T13:56:36;9.60;99.90
18091;DHT22;9172;49.948;9.208;2023-01-08T13:59:05;9.60;99.90
18091;DHT22;9172;49.948;9.208;2023-01-08T14:01:33;9.60;99.90
18091;DHT22;9172;49.948;9.208;2023-01-08T14:04:02;9.60;99.90
18091;DHT22;9172;49.948;9.208;2023-01-08T14:06:34;9.70;99.90
18091;DHT22;9172;49.948;9.208;2023-01-08T14:09:04;9.60;99.90
18091;DHT22;9172;49.948;9.208;2023-01-08T14:11:36;9.60;99.90
18091;DHT22;9172;49.948;9.208;2023-01-08T14:14:08;9.60;99.90
18091;DHT22;9172;49.948;9.208;2023-01-08T14:16:37;9.70;99.90
18091;DHT22;9172;49.948;9.208;2023-01-08T14:19:10;9.70;99.90
18091;DHT22;9172;49.948;9.208;2023-01-08T14:21:40;9.70;99.90
18091;DHT22;9172;49.948;9.208;2023-01-08T14:24:14;9.70;99.90
18091;DHT22;9172;49.948;9.208;2023-01-08T14:26:49;9.70;99.90
18091;DHT22;9172;49.948;9.208;2023-01-08T14:29:18;9.70;99.90
18091;DHT22;9172;49.948;9.208;2023-01-08T14:31:49;9.70;99.90
18091;DHT22;9172;49.948;9.208;2023-01-08T14:34:23;9.70;99.90
18091;DHT22;9172;49.948;9.208;2023-01-08T14:36:54;9.70;99.90
18091;DHT22;9172;49.948;9.208;2023-01-08T14:39:24;9.70;99.90
18091;DHT22;9172;49.948;9.208;2023-01-08T14:41:58;9.60;99.90
18091;DHT22;9172;49.948;9.208;2023-01-08T14:44:46;9.70;99.90
18091;DHT22;9172;49.948;9.208;2023-01-08T14:47:17;9.70;99.90
18091;DHT22;9172;49.948;9.208;2023-01-08T14:49:50;9.70;99.90
18091;DHT22;9172;49.948;9.208;2023-01-08T14:52:20;9.70;99.90
18091;DHT22;9172;49.948;9.208;2023-01-08T14:54:50;9.60;99.90
18091;DHT22;9172;49.948;9.208;2023-01-08T14:57:20;9.60;99.90
18091;DHT22;9172;49.948;9.208;2023-01-08T14:59:52;9.60;99.90
18091;DHT22;9172;49.948;9.208;2023-01-08T15:02:25;9.60;99.90
18091;DHT22;9172;49.948;9.208;2023-01-08T15:05:03;9.60;99.90
18091;DHT22;9172;49.948;9.208;2023-01-08T15:07:34;9.60;99.90
18091;DHT22;9172;49.948;9.208;2023-01-08T15:10:21;9.60;99.90
18091;DHT22;9172;49.948;9.208;2023-01-08T15:12:56;9.60;99.90
18091;DHT22;9172;49.948;9.208;2023-01-08T15:15:27;9.60;99.90
18091;DHT22;9172;49.948;9.208;2023-01-08T15:18:00;9.60;99.90
18091;DHT22;9172;49.948;9.208;2023-01-08T15:20:33;9.60;99.90
18091;DHT22;9172;49.948;9.208;2023-01-08T15:23:02;9.60;99.90
18091;DHT22;9172;49.948;9.208;2023-01-08T15:25:30;9.50;99.90
18091;DHT22;9172;49.948;9.208;2023-01-08T15:28:04;9.50;99.90
18091;DHT22;9172;49.948;9.208;2023-01-08T15:30:35;9.60;99.90
18091;DHT22;9172;49.948;9.208;2023-01-08T15:33:14;9.60;99.90
18091;DHT22;9172;49.948;9.208;2023-01-08T15:35:44;9.50;99.90
18091;DHT22;9172;49.948;9.208;2023-01-08T15:38:14;9.50;99.90
18091;DHT22;9172;49.948;9.208;2023-01-08T15:40:43;9.60;99.90
18091;DHT22;9172;49.948;9.208;2023-01-08T15:43:15;9.50;99.90
18091;DHT22;9172;49.948;9.208;2023-01-08T15:45:45;9.50;99.90
18091;DHT22;9172;49.948;9.208;2023-01-08T15:48:15;9.60;99.90
18091;DHT22;9172;49.948;9.208;2023-01-08T15:50:45;9.50;99.90
18091;DHT22;9172;49.948;9.208;2023-01-08T15:53:17;9.50;99.90
18091;DHT22;9172;49.948;9.208;2023-01-08T15:55:46;9.50;99.90
18091;DHT22;9172;49.948;9.208;2023-01-08T15:58:17;9.60;99.90
18091;DHT22;9172;49.948;9.208;2023-01-08T16:00:48;9.50;99.90
18091;DHT22;9172;49.948;9.208;2023-01-08T16:03:19;9.50;99.90
18091;DHT22;9172;49.948;9.208;2023-01-08T16:05:49;9.50;99.90
18091;DHT22;9172;49.948;9.208;2023-01-08T16:08:18;9.50;99.90
18091;DHT22;9172;49.948;9.208;2023-01-08T16:10:51;9.50;99.90
18091;DHT22;9172;49.948;9.208;2023-01-08T16:13:20;9.50;99.90
18091;DHT22;9172;49.948;9.208;2023-01-08T16:15:52;9.50;99.90
18091;DHT22;9172;49.948;9.208;2023-01-08T16:18:21;9.50;99.90
18091;DHT22;9172;49.948;9.208;2023-01-08T16:20:57;9.50;99.90
18091;DHT22;9172;49.948;9.208;2023-01-08T16:23:22;9.40;99.90
18091;DHT22;9172;49.948;9.208;2023-01-08T16:25:50;9.50;99.90
18091;DHT22;9172;49.948;9.208;2023-01-08T16:28:21;9.50;99.90
18091;DHT22;9172;49.948;9.208;2023-01-08T16:30:51;9.50;99.90
18091;DHT22;9172;49.948;9.208;2023-01-08T16:33:23;9.40;99.90
18091;DHT22;9172;49.948;9.208;2023-01-08T16:35:56;9.40;99.90
18091;DHT22;9172;49.948;9.208;2023-01-08T16:38:25;9.40;99.90
18091;DHT22;9172;49.948;9.208;2023-01-08T16:40:55;9.30;99.90
18091;DHT22;9172;49.948;9.208;2023-01-08T16:43:25;9.30;99.90
18091;DHT22;9172;49.948;9.208;2023-01-08T16:45:55;9.30;99.90
18091;DHT22;9172;49.948;9.208;2023-01-08T16:48:26;9.30;99.90
18091;DHT22;9172;49.948;9.208;2023-01-08T16:50:55;9.30;99.90
18091;DHT22;9172;49.948;9.208;2023-01-08T16:53:25;9.30;99.90
18091;DHT22;9172;49.948;9.208;2023-01-08T16:55:57;9.30;99.90